createdAt,value
2022-10-13T00:00:01.570Z,36.35
2022-10-13T00:05:03.251Z,37.58
2022-10-13T00:10:05.462Z,44.55
2022-10-13T00:15:08.026Z,33.33
2022-10-13T00:20:10.286Z,35.63
2022-10-13T00:25:11.970Z,40.35
2022-10-13T00:30:13.954Z,34.90
2022-10-13T00:35:15.635Z,34.38
2022-10-13T00:40:17.288Z,31.10
2022-10-13T00:45:21.615Z,33.55
2022-10-13T00:50:27.966Z,36.67
2022-10-13T00:55:34.654Z,36.58
2022-10-13T01:00:36.216Z,37.65
2022-10-13T01:05:39.374Z,34.05
2022-10-13T01:11:06.703Z,37.65
2022-10-13T01:16:32.670Z,33.55
2022-10-13T01:21:57.072Z,36.53
2022-10-13T01:27:14.235Z,41.90
2022-10-13T01:32:46.904Z,39.20
2022-10-13T01:37:57.375Z,34.15
2022-10-13T01:43:06.898Z,36.75
2022-10-13T01:48:10.561Z,37.75
2022-10-13T01:53:17.252Z,37.33
2022-10-13T01:58:22.262Z,38.03
2022-10-13T02:03:35.534Z,35.95
2022-10-13T02:09:03.041Z,39.58
2022-10-13T02:14:19.592Z,31.55
2022-10-13T02:19:21.625Z,29.65
2022-10-13T02:24:23.429Z,36.58
2022-10-13T02:29:25.068Z,34.65
2022-10-13T02:34:26.574Z,31.77
2022-10-13T02:39:28.038Z,30.50
2022-10-13T02:44:29.531Z,35.65
2022-10-13T02:49:31.024Z,29.17
2022-10-13T02:54:32.489Z,30.63
2022-10-13T02:59:33.976Z,22.63
2022-10-13T03:04:35.741Z,24.70
2022-10-13T03:09:37.848Z,28.23
2022-10-13T03:14:39.439Z,26.77
2022-10-13T03:19:41.099Z,29.30
2022-10-13T03:24:46.908Z,21.63
2022-10-13T03:29:48.491Z,27.17
2022-10-13T03:34:50.385Z,31.40
2022-10-13T03:39:51.890Z,25.88
2022-10-13T03:44:56.293Z,29.13
2022-10-13T03:49:58.111Z,28.17
2022-10-13T03:54:59.628Z,27.00
2022-10-13T04:00:01.144Z,24.65
2022-10-13T04:05:03.266Z,30.25
2022-10-13T04:10:08.995Z,28.02
2022-10-13T04:15:12.775Z,27.33
2022-10-13T04:20:14.455Z,28.80
2022-10-13T04:25:16.029Z,22.23
2022-10-13T04:30:17.539Z,23.42
2022-10-13T04:35:19.047Z,24.15
2022-10-13T04:40:20.638Z,27.27
2022-10-13T04:45:22.150Z,19.48
2022-10-13T04:50:24.216Z,24.42
2022-10-13T04:55:36.164Z,23.15
2022-10-13T05:00:37.679Z,25.27
2022-10-13T05:05:39.860Z,20.98
2022-10-13T05:10:41.370Z,20.60
2022-10-13T05:15:42.850Z,21.58
2022-10-13T05:20:44.505Z,26.67
2022-10-13T05:25:45.987Z,25.83
2022-10-13T05:30:49.388Z,27.88
2022-10-13T05:35:50.856Z,22.15
2022-10-13T05:40:52.344Z,23.20
2022-10-13T05:45:53.865Z,27.70
2022-10-13T05:50:59.286Z,20.70
2022-10-13T05:56:06.296Z,22.65
2022-10-13T06:01:11.971Z,24.98
2022-10-13T06:06:13.587Z,18.52
2022-10-13T06:11:15.097Z,21.30
2022-10-13T06:16:16.630Z,25.75
2022-10-13T06:21:18.194Z,22.95
2022-10-13T06:26:19.783Z,23.40
2022-10-13T06:31:24.405Z,25.42
2022-10-13T06:36:26.128Z,22.90
2022-10-13T06:41:27.722Z,18.70
2022-10-13T06:46:29.266Z,23.45
2022-10-13T06:51:30.733Z,31.30
2022-10-13T06:56:32.249Z,24.00
2022-10-13T07:01:41.516Z,22.30
2022-10-13T07:06:47.261Z,20.45
2022-10-13T07:11:48.807Z,23.48
2022-10-13T07:16:50.437Z,19.80
2022-10-13T07:21:52.223Z,17.58
2022-10-13T07:26:59.589Z,18.58
2022-10-13T07:32:03.420Z,19.45
2022-10-13T07:37:04.920Z,15.32
2022-10-13T07:42:06.870Z,18.60
2022-10-13T07:47:08.421Z,17.00
2022-10-13T07:52:10.254Z,18.55
2022-10-13T07:57:11.954Z,16.80
2022-10-13T08:02:13.671Z,16.45
2022-10-13T08:07:15.269Z,15.85
2022-10-13T08:12:17.171Z,11.70
2022-10-13T08:17:19.162Z,16.05
2022-10-13T08:22:24.699Z,15.13
2022-10-13T08:27:49.606Z,13.35
2022-10-13T08:32:51.496Z,15.38
2022-10-13T08:37:53.015Z,12.38
2022-10-13T08:43:00.133Z,12.05
2022-10-13T08:48:05.966Z,14.20
2022-10-13T08:53:29.739Z,16.48
2022-10-13T08:58:37.238Z,15.05
2022-10-13T09:03:54.400Z,13.77
2022-10-13T09:09:10.069Z,16.70
2022-10-13T09:14:19.395Z,17.37
2022-10-13T09:19:20.866Z,14.05
2022-10-13T09:24:25.283Z,19.77
2022-10-13T09:29:27.148Z,14.40
2022-10-13T09:34:28.686Z,15.05
2022-10-13T09:39:33.701Z,14.18
2022-10-13T09:44:35.314Z,13.55
2022-10-13T09:49:39.881Z,13.32
2022-10-13T09:54:51.243Z,14.27
2022-10-13T10:00:03.096Z,14.57
2022-10-13T10:05:42.245Z,18.98
2022-10-13T10:10:44.670Z,17.20
2022-10-13T10:16:04.690Z,14.38
2022-10-13T10:21:08.515Z,11.32
2022-10-13T10:26:24.269Z,11.63
2022-10-13T10:31:46.537Z,13.68
2022-10-13T10:36:51.134Z,14.77
2022-10-13T10:42:18.956Z,13.43
2022-10-13T10:47:30.125Z,13.38
2022-10-13T10:53:02.462Z,12.48
2022-10-13T10:58:22.749Z,12.85
2022-10-13T11:03:48.713Z,10.38
2022-10-13T11:08:50.677Z,16.00
2022-10-13T11:14:15.773Z,12.45
2022-10-13T11:19:36.242Z,11.30
2022-10-13T11:24:40.637Z,10.68
2022-10-13T11:29:51.637Z,9.82
2022-10-13T11:35:20.642Z,12.32
2022-10-13T11:40:28.251Z,12.32
2022-10-13T11:45:47.248Z,9.23
2022-10-13T11:50:59.526Z,13.98
2022-10-13T11:56:01.407Z,9.27
2022-10-13T12:01:11.965Z,7.82
2022-10-13T12:06:23.290Z,7.10
2022-10-13T12:11:34.235Z,7.28
2022-10-13T12:16:35.719Z,7.72
2022-10-13T12:21:49.620Z,9.13
2022-10-13T12:26:52.025Z,6.65
2022-10-13T12:31:54.501Z,9.82
2022-10-13T12:36:58.490Z,8.18
2022-10-13T12:42:02.176Z,12.10
2022-10-13T12:47:03.813Z,9.77
2022-10-13T12:52:23.787Z,11.60
2022-10-13T12:57:35.724Z,11.55
2022-10-13T13:02:37.337Z,11.98
2022-10-13T13:07:38.917Z,10.68
2022-10-13T13:12:41.059Z,9.65
2022-10-13T13:18:03.799Z,9.57
2022-10-13T13:23:05.375Z,10.23
2022-10-13T13:28:12.355Z,9.60
2022-10-13T13:33:14.012Z,10.15
2022-10-13T13:38:15.601Z,15.13
2022-10-13T13:43:17.195Z,12.40
2022-10-13T13:48:18.725Z,9.93
2022-10-13T13:53:20.257Z,12.18
2022-10-13T13:58:21.807Z,11.80
2022-10-13T14:03:24.323Z,9.20
2022-10-13T14:08:25.874Z,11.98
2022-10-13T14:13:27.411Z,10.52
2022-10-13T14:18:29.684Z,12.95
2022-10-13T14:23:34.217Z,8.70
2022-10-13T14:28:35.786Z,13.90
2022-10-13T20:56:56.424Z,5.55
2022-10-13T21:01:57.956Z,5.70
